Time;durP1;ratioP1;P1;durP2;ratioP2;P2;SDS_P1;SDS_P2;PMS_P1;PMS_P2;Temp;Humidity;BMP_temperature;BMP_pressure;BME280_temperature;BME280_humidity;BME280_pressure;Samples;Min_cycle;Max_cycle;Signal;HPM_P1;HPM_P2
2022/08/23 00:00:48;;;;;;;;;;;;;;;28.23;70.85;154760.06;1701382;83;20181;-60
2022/08/23 00:03:15;;;;;;;;;;;;;;;28.26;71.19;154769.27;1700939;84;20193;-59
2022/08/23 00:05:41;;;;;;;;;;;;;;;28.40;70.82;154803.36;1701997;84;20126;-60
2022/08/23 00:08:08;;;;;;;;;;;;;;;28.57;69.89;154847.98;1702572;84;20214;-61
2022/08/23 00:10:35;;;;;;;;;;;;;;;28.66;68.11;154870.31;1703124;83;21235;-61
2022/08/23 00:13:01;;;;;;;;;;;;;;;28.65;67.32;154866.41;1732444;82;20594;-61
2022/08/23 00:15:28;;;;;;;;;;;;;;;28.79;67.01;154903.17;1735018;82;20217;-60
2022/08/23 00:17:55;;;;;;;;;;;;;;;28.85;67.14;154917.63;1734879;82;20168;-60
2022/08/23 00:20:21;;;;;;;;;;;;;;;28.81;67.41;154908.42;1735153;82;20148;-60
2022/08/23 00:22:48;;;;;;;;;;;;;;;28.76;68.10;154893.97;1734969;82;22073;-60
2022/08/23 00:25:15;;;;;;;;;;;;;;;28.74;68.50;154890.00;1734751;82;20136;-60
2022/08/23 00:27:41;;;;;;;;;;;;;;;28.78;68.32;154900.50;1735032;82;20550;-61
2022/08/23 00:30:09;;;;;;;;;;;;;;;28.64;68.27;154863.78;1734855;82;20524;-61
2022/08/23 00:32:37;;;;;;;;;;;;;;;28.41;69.29;154807.31;1735503;82;20266;-60
2022/08/23 00:35:05;;;;;;;;;;;;;;;28.18;70.35;154748.23;1735299;82;21771;-60
2022/08/23 00:37:32;;;;;;;;;;;;;;;28.16;71.13;154742.98;1735576;82;20582;-60
2022/08/23 00:39:59;;;;;;;;;;;;;;;28.16;70.86;154742.98;1734799;82;20481;-61
2022/08/23 00:48:33;;;;;;;;;;;;;;;28.07;71.79;154720.63;1735322;82;21184;-59
2022/08/23 00:51:15;;;;;;;;;;;;;;;28.06;72.09;154716.72;1734806;82;20284;-59
2022/08/23 00:53:51;;;;;;;;;;;;;;;27.97;72.12;154694.41;1734948;82;20191;-60
2022/08/23 00:56:18;;;;;;;;;;;;;;;27.93;72.57;154683.92;1734829;82;20172;-60
2022/08/23 00:58:45;;;;;;;;;;;;;;;27.93;72.36;154685.20;1734813;82;20180;-60
2022/08/23 01:01:12;;;;;;;;;;;;;;;27.87;72.37;154669.47;1735020;82;21212;-61
2022/08/23 01:03:41;;;;;;;;;;;;;;;27.74;72.58;154638.02;1734900;82;20188;-60
2022/08/23 01:06:13;;;;;;;;;;;;;;;27.64;72.89;154611.75;1716363;82;20175;-60
2022/08/23 01:08:50;;;;;;;;;;;;;;;27.51;73.29;154577.56;1702723;84;20572;-60
2022/08/23 01:11:21;;;;;;;;;;;;;;;27.34;74.08;154534.30;1677411;83;20204;-59
2022/08/23 01:14:00;;;;;;;;;;;;;;;27.25;74.79;154513.31;1717384;83;20545;-60
2022/08/23 01:16:33;;;;;;;;;;;;;;;27.27;75.26;154517.23;1717025;82;20149;-60
2022/08/23 01:19:01;;;;;;;;;;;;;;;27.29;75.19;154522.47;1712129;82;20184;-59
2022/08/23 01:21:40;;;;;;;;;;;;;;;27.21;75.45;154501.50;1701581;83;20478;-60
2022/08/23 01:24:07;;;;;;;;;;;;;;;27.15;76.05;154488.41;1701136;84;20175;-59
2022/08/23 01:26:34;;;;;;;;;;;;;;;27.22;75.91;154504.13;1700733;84;21232;-60
2022/08/23 01:29:03;;;;;;;;;;;;;;;27.21;76.07;154501.50;1682334;84;20514;-60
2022/08/23 01:31:29;;;;;;;;;;;;;;;27.17;76.10;154492.31;1701988;84;20192;-60
2022/08/23 01:34:00;;;;;;;;;;;;;;;27.20;76.49;154498.88;1701093;83;37856;-61
2022/08/23 01:36:27;;;;;;;;;;;;;;;27.22;76.33;154504.13;1700725;83;20264;-60
2022/08/23 01:38:54;;;;;;;;;;;;;;;27.11;76.51;154477.91;1682675;84;21240;-60
2022/08/23 01:41:21;;;;;;;;;;;;;;;26.82;77.10;154404.39;1700755;83;20393;-60
2022/08/23 01:43:48;;;;;;;;;;;;;;;26.55;78.40;154336.22;1700716;83;20177;-59
2022/08/23 01:46:19;;;;;;;;;;;;;;;26.48;79.33;154317.87;1701048;84;20232;-60
2022/08/23 01:48:49;;;;;;;;;;;;;;;26.46;79.68;154313.92;1701104;83;20533;-59
2022/08/23 01:51:16;;;;;;;;;;;;;;;26.50;79.98;154323.12;1700968;84;21254;-59
2022/08/23 01:53:45;;;;;;;;;;;;;;;26.53;80.06;154330.98;1701702;84;20185;-59
2022/08/23 01:56:13;;;;;;;;;;;;;;;26.57;79.79;154341.45;1701109;83;20177;-59
2022/08/23 01:58:40;;;;;;;;;;;;;;;26.59;79.99;154346.70;1701452;84;20546;-60
2022/08/23 02:01:08;;;;;;;;;;;;;;;26.69;79.69;154370.33;1700999;84;20176;-60
2022/08/23 02:03:36;;;;;;;;;;;;;;;26.62;79.53;154353.27;1700972;83;21288;-60
2022/08/23 02:06:03;;;;;;;;;;;;;;;26.53;79.88;154329.69;1701978;83;20185;-60
2022/08/23 02:11:23;;;;;;;;;;;;;;;26.52;80.41;154327.03;1702066;83;20481;-59
2022/08/23 02:13:50;;;;;;;;;;;;;;;26.62;80.41;154353.27;1701308;84;20201;-59
2022/08/23 02:16:32;;;;;;;;;;;;;;;26.72;79.81;154378.19;1700927;84;21321;-69
2022/08/23 02:19:01;;;;;;;;;;;;;;;26.82;79.42;154404.39;1722984;81;20290;-70
2022/08/23 02:21:31;;;;;;;;;;;;;;;26.83;78.81;154407.02;1735284;81;20520;-69
2022/08/23 02:23:59;;;;;;;;;;;;;;;26.67;78.91;154365.09;1734841;82;20502;-70
2022/08/23 02:26:26;;;;;;;;;;;;;;;26.55;79.49;154336.22;1734987;82;20610;-70
2022/08/23 02:28:53;;;;;;;;;;;;;;;26.46;80.10;154313.92;1735286;82;22005;-69
2022/08/23 02:31:20;;;;;;;;;;;;;;;26.42;79.91;154303.44;1734715;82;20200;-69
2022/08/23 02:33:47;;;;;;;;;;;;;;;26.34;80.25;154281.16;1735478;82;20180;-68
2022/08/23 02:36:15;;;;;;;;;;;;;;;26.27;80.46;154265.44;1734739;82;21696;-69
2022/08/23 02:38:41;;;;;;;;;;;;;;;26.23;80.45;154254.95;1735378;81;20184;-69
2022/08/23 02:41:08;;;;;;;;;;;;;;;26.15;80.66;154233.91;1735123;82;21197;-69
2022/08/23 02:43:36;;;;;;;;;;;;;;;26.06;80.88;154210.33;1735384;81;20374;-68
2022/08/23 02:46:05;;;;;;;;;;;;;;;26.02;81.03;154201.14;1734941;82;20168;-69
2022/08/23 02:48:34;;;;;;;;;;;;;;;25.96;81.03;154185.42;1735490;82;20472;-70
2022/08/23 02:51:05;;;;;;;;;;;;;;;25.88;81.20;154165.75;1707891;82;20226;-68
2022/08/23 02:53:32;;;;;;;;;;;;;;;25.90;81.46;154171.00;1734861;82;21321;-68
2022/08/23 02:56:01;;;;;;;;;;;;;;;25.92;80.87;154174.94;1735323;81;20192;-69
2022/08/23 02:58:28;;;;;;;;;;;;;;;25.87;81.13;154163.14;1735042;81;20208;-69
2022/08/23 03:00:55;;;;;;;;;;;;;;;25.93;81.07;154177.56;1735009;82;20179;-69
2022/08/23 03:03:22;;;;;;;;;;;;;;;26.04;80.93;154206.38;1734897;82;20437;-70
2022/08/23 03:05:49;;;;;;;;;;;;;;;26.12;80.01;154226.05;1720293;82;22138;-70
2022/08/23 03:08:17;;;;;;;;;;;;;;;26.11;79.71;154224.75;1702445;84;20286;-69
2022/08/23 03:10:47;;;;;;;;;;;;;;;26.17;79.39;154239.19;1702659;82;20483;-69
2022/08/23 03:13:13;;;;;;;;;;;;;;;26.22;79.00;154252.34;1734995;82;20196;-69
2022/08/23 03:15:40;;;;;;;;;;;;;;;26.36;78.27;154286.39;1734983;82;20459;-68
2022/08/23 03:18:08;;;;;;;;;;;;;;;26.38;77.28;154291.63;1730395;82;21244;-68
2022/08/23 03:20:35;;;;;;;;;;;;;;;26.26;76.95;154261.48;1735448;81;20164;-69
2022/08/23 03:23:02;;;;;;;;;;;;;;;26.24;76.88;154257.58;1734736;82;20469;-69
2022/08/23 03:25:29;;;;;;;;;;;;;;;26.15;76.72;154235.23;1735113;82;20460;-69
2022/08/23 03:28:04;;;;;;;;;;;;;;;26.02;77.20;154202.47;1735216;82;20151;-68
2022/08/23 03:30:32;;;;;;;;;;;;;;;26.01;77.58;154198.52;1735184;82;21239;-69
2022/08/23 03:33:00;;;;;;;;;;;;;;;26.15;77.24;154235.23;1735819;81;20159;-69
2022/08/23 03:35:29;;;;;;;;;;;;;;;26.25;76.78;154258.86;1735051;82;20152;-70
2022/08/23 03:37:56;;;;;;;;;;;;;;;26.30;76.41;154273.30;1734813;81;20481;-70
2022/08/23 03:40:23;;;;;;;;;;;;;;;26.29;76.13;154270.67;1735104;81;20188;-70
2022/08/23 03:42:50;;;;;;;;;;;;;;;26.39;75.94;154294.25;1735362;82;21131;-69
2022/08/23 03:45:18;;;;;;;;;;;;;;;26.48;75.25;154317.87;1734999;82;20195;-70
2022/08/23 03:47:45;;;;;;;;;;;;;;;26.51;74.92;154325.73;1735346;81;20176;-70
2022/08/23 03:50:11;;;;;;;;;;;;;;;26.60;74.60;154348.03;1735062;81;20179;-70
2022/08/23 03:52:39;;;;;;;;;;;;;;;26.76;73.82;154388.67;1735081;82;20469;-70
2022/08/23 03:55:07;;;;;;;;;;;;;;;26.83;73.12;154407.02;1735096;82;21241;-70
2022/08/23 03:57:33;;;;;;;;;;;;;;;26.86;72.74;154413.64;1736033;82;20119;-69
2022/08/23 04:00:01;;;;;;;;;;;;;;;26.95;72.61;154435.94;1735050;82;20205;-69
2022/08/23 04:02:28;;;;;;;;;;;;;;;27.02;72.03;154454.28;1708563;82;20127;-70
2022/08/23 04:04:56;;;;;;;;;;;;;;;27.06;71.48;154464.77;1732669;82;20239;-69
2022/08/23 04:07:38;;;;;;;;;;;;;;;27.08;71.11;154468.72;1701370;84;21334;-69
2022/08/23 04:10:06;;;;;;;;;;;;;;;27.03;70.56;154456.91;1702593;84;20463;-69
2022/08/23 04:12:35;;;;;;;;;;;;;;;26.91;70.75;154426.75;1687854;83;20168;-69
2022/08/23 04:15:03;;;;;;;;;;;;;;;26.80;70.72;154399.16;1711721;83;20417;-69
2022/08/23 04:17:32;;;;;;;;;;;;;;;26.79;71.27;154396.53;1712761;82;20213;-69
2022/08/23 04:19:58;;;;;;;;;;;;;;;26.96;70.79;154438.56;1712949;82;21222;-69
2022/08/23 04:22:26;;;;;;;;;;;;;;;26.97;70.45;154441.19;1710141;84;20241;-68
2022/08/23 04:24:54;;;;;;;;;;;;;;;27.06;70.64;154464.77;1710210;83;20465;-69
2022/08/23 04:27:21;;;;;;;;;;;;;;;27.06;70.26;154464.77;1709903;84;20170;-68
2022/08/23 04:29:49;;;;;;;;;;;;;;;27.03;70.60;154456.91;1710024;83;20197;-68
2022/08/23 04:32:16;;;;;;;;;;;;;;;27.03;71.02;154458.23;1710082;84;21111;-68
2022/08/23 04:34:43;;;;;;;;;;;;;;;27.13;70.96;154483.16;1710065;83;20211;-69
2022/08/23 04:37:11;;;;;;;;;;;;;;;27.22;70.75;154504.13;1710131;83;20749;-70
2022/08/23 04:42:24;;;;;;;;;;;;;;;27.41;70.01;154553.97;1687431;84;20189;-69
2022/08/23 04:44:50;;;;;;;;;;;;;;;27.56;69.33;154590.78;1709928;83;21122;-68
2022/08/23 04:47:18;;;;;;;;;;;;;;;27.58;69.32;154597.30;1710051;84;20210;-70
2022/08/23 04:49:45;;;;;;;;;;;;;;;27.71;69.11;154630.09;1710192;84;20224;-69
2022/08/23 04:52:13;;;;;;;;;;;;;;;27.88;68.52;154672.09;1687461;84;20137;-69
2022/08/23 04:54:40;;;;;;;;;;;;;;;28.07;68.23;154719.34;1710923;84;20133;-68
2022/08/23 04:57:24;;;;;;;;;;;;;;;28.28;67.76;154774.50;1675072;84;21823;-69
2022/08/23 04:59:51;;;;;;;;;;;;;;;28.56;66.84;154845.38;1698211;84;20185;-60
2022/08/23 05:02:19;;;;;;;;;;;;;;;28.76;66.27;154895.25;1709884;84;20445;-61
2022/08/23 05:04:46;;;;;;;;;;;;;;;28.93;65.71;154937.33;1709879;83;20181;-60
2022/08/23 05:07:14;;;;;;;;;;;;;;;29.08;65.22;154976.72;1711423;83;20197;-61
2022/08/23 05:09:42;;;;;;;;;;;;;;;29.03;64.60;154963.56;1711361;83;21106;-60
2022/08/23 05:12:10;;;;;;;;;;;;;;;28.83;65.33;154913.66;1736222;81;20639;-69
2022/08/23 05:14:38;;;;;;;;;;;;;;;28.69;66.25;154876.89;1710027;83;20209;-70
2022/08/23 05:17:05;;;;;;;;;;;;;;;28.60;66.63;154854.58;1709475;83;20667;-69
2022/08/23 05:19:33;;;;;;;;;;;;;;;28.54;66.97;154840.13;1713753;82;20220;-60
2022/08/23 05:22:00;;;;;;;;;;;;;;;28.58;67.00;154850.61;1709968;83;21128;-70
2022/08/23 05:24:29;;;;;;;;;;;;;;;28.56;67.22;154845.38;1707103;84;20563;-69
2022/08/23 05:26:55;;;;;;;;;;;;;;;28.60;67.53;154855.86;1710165;83;20212;-68
2022/08/23 05:29:23;;;;;;;;;;;;;;;28.65;66.88;154867.69;1709723;83;20615;-68
2022/08/23 05:31:50;;;;;;;;;;;;;;;28.54;67.46;154840.13;1709788;84;20283;-68
2022/08/23 05:34:17;;;;;;;;;;;;;;;28.59;67.24;154853.23;1709843;84;21226;-68
2022/08/23 05:36:46;;;;;;;;;;;;;;;28.76;66.82;154895.25;1710211;83;20176;-68
2022/08/23 05:39:14;;;;;;;;;;;;;;;28.90;66.40;154929.45;1709660;84;20216;-69
2022/08/23 05:41:42;;;;;;;;;;;;;;;28.99;65.73;154954.41;1710793;83;20939;-67
2022/08/23 05:44:10;;;;;;;;;;;;;;;29.16;64.89;154996.38;1709852;83;20334;-68
2022/08/23 05:46:38;;;;;;;;;;;;;;;29.23;64.42;155014.80;1710409;84;21329;-68
2022/08/23 05:49:17;;;;;;;;;;;;;;;29.21;64.04;155008.22;1709528;83;20185;-69
2022/08/23 05:51:44;;;;;;;;;;;;;;;29.14;64.12;154992.47;1710170;84;20200;-69
2022/08/23 05:54:11;;;;;;;;;;;;;;;29.31;63.97;155034.50;1709735;83;20168;-68
2022/08/23 05:56:44;;;;;;;;;;;;;;;29.53;63.12;155089.70;1710217;84;20180;-68
2022/08/23 05:59:12;;;;;;;;;;;;;;;29.68;61.74;155129.06;1710136;83;21701;-68
2022/08/23 06:01:39;;;;;;;;;;;;;;;29.68;61.20;155127.78;1710456;83;20192;-67
2022/08/23 06:04:10;;;;;;;;;;;;;;;29.59;61.64;155105.45;1709144;83;20183;-67
2022/08/23 06:06:37;;;;;;;;;;;;;;;29.61;61.67;155110.70;1711099;83;20200;-67
2022/08/23 06:09:06;;;;;;;;;;;;;;;29.77;61.55;155150.11;1711679;83;20216;-68
2022/08/23 06:11:33;;;;;;;;;;;;;;;29.79;60.64;155155.36;1709395;83;21920;-68
2022/08/23 06:14:03;;;;;;;;;;;;;;;29.79;60.82;155155.36;1701079;84;20216;-68
2022/08/23 06:16:33;;;;;;;;;;;;;;;29.76;60.88;155148.78;1699613;83;20443;-68
2022/08/23 06:19:03;;;;;;;;;;;;;;;29.79;60.67;155156.66;1705268;82;20136;-67
2022/08/23 06:21:50;;;;;;;;;;;;;;;29.90;60.24;155184.23;1699661;83;20180;-67
2022/08/23 06:24:19;;;;;;;;;;;;;;;29.93;59.64;155190.81;1699513;83;21102;-68
2022/08/23 06:26:47;;;;;;;;;;;;;;;29.84;59.89;155168.48;1698472;83;20250;-68
2022/08/23 06:29:16;;;;;;;;;;;;;;;29.79;59.94;155155.36;1704523;82;20186;-69
2022/08/23 06:31:46;;;;;;;;;;;;;;;29.85;60.22;155171.11;1701065;83;20206;-68
2022/08/23 06:34:18;;;;;;;;;;;;;;;30.03;59.34;155217.13;1704951;82;20499;-69
2022/08/23 06:37:09;;;;;;;;;;;;;;;29.96;59.25;155200.03;1702416;84;22171;-68
2022/08/23 06:39:47;;;;;;;;;;;;;;;29.73;59.38;155142.25;1646957;85;20227;-67
2022/08/23 06:42:16;;;;;;;;;;;;;;;29.70;60.09;155134.31;1697160;84;20202;-68
2022/08/23 06:44:44;;;;;;;;;;;;;;;29.82;59.53;155164.53;1705382;82;20435;-67
2022/08/23 06:47:16;;;;;;;;;;;;;;;29.89;59.36;155181.61;1699656;84;20130;-68
2022/08/23 06:49:42;;;;;;;;;;;;;;;29.94;59.10;155194.73;1701223;82;21284;-69
2022/08/23 06:52:11;;;;;;;;;;;;;;;30.00;58.97;155210.53;1702331;84;20210;-68
2022/08/23 06:54:51;;;;;;;;;;;;;;;29.95;58.51;155197.36;1700724;82;20183;-69
2022/08/23 06:57:23;;;;;;;;;;;;;;;29.99;58.96;155207.91;1676898;84;20209;-69
2022/08/23 07:00:09;;;;;;;;;;;;;;;30.10;58.75;155234.20;1696994;84;20183;-68
2022/08/23 07:02:55;;;;;;;;;;;;;;;30.22;58.25;155265.75;1699495;84;21278;-68
2022/08/23 07:05:30;;;;;;;;;;;;;;;30.34;57.78;155294.63;1685211;84;20178;-69
2022/08/23 07:08:07;;;;;;;;;;;;;;;30.26;57.60;155276.25;1701338;83;20455;-68
2022/08/23 07:10:34;;;;;;;;;;;;;;;30.12;57.88;155239.45;1701520;83;20087;-69
2022/08/23 07:13:02;;;;;;;;;;;;;;;29.96;57.97;155200.03;1699393;82;20174;-69
2022/08/23 07:15:29;;;;;;;;;;;;;;;29.90;58.61;155182.94;1705681;82;21244;-69
2022/08/23 07:17:56;;;;;;;;;;;;;;;30.00;58.79;155209.19;1702658;82;20214;-69
2022/08/23 07:20:23;;;;;;;;;;;;;;;30.04;58.21;155218.45;1701084;84;20206;-68
2022/08/23 07:22:50;;;;;;;;;;;;;;;29.93;58.89;155192.11;1701350;83;20225;-69
2022/08/23 07:25:17;;;;;;;;;;;;;;;30.15;58.62;155247.33;1701339;84;20234;-69
2022/08/23 07:27:45;;;;;;;;;;;;;;;30.37;57.47;155302.50;1701511;84;21081;-70
2022/08/23 07:30:14;;;;;;;;;;;;;;;30.41;56.72;155314.34;1701187;82;20178;-69
2022/08/23 07:32:40;;;;;;;;;;;;;;;30.29;56.85;155282.84;1703237;82;20202;-70
2022/08/23 07:35:18;;;;;;;;;;;;;;;30.32;56.82;155289.38;1697913;83;20612;-69
2022/08/23 07:37:45;;;;;;;;;;;;;;;30.35;56.95;155297.25;1700456;84;20447;-69
2022/08/23 07:40:12;;;;;;;;;;;;;;;30.34;57.06;155295.97;1702053;84;21307;-69
2022/08/23 07:42:40;;;;;;;;;;;;;;;30.27;56.87;155277.55;1702140;84;20158;-69
2022/08/23 07:45:08;;;;;;;;;;;;;;;30.11;57.03;155236.83;1701977;82;20476;-68
2022/08/23 07:47:35;;;;;;;;;;;;;;;29.92;57.57;155189.48;1701483;84;20178;-68
2022/08/23 07:50:02;;;;;;;;;;;;;;;29.90;57.80;155184.23;1701728;84;20179;-69
2022/08/23 07:52:31;;;;;;;;;;;;;;;29.91;57.72;155185.56;1700486;84;21755;-69
2022/08/23 07:54:58;;;;;;;;;;;;;;;29.84;57.66;155169.83;1703256;82;20519;-69
2022/08/23 07:57:43;;;;;;;;;;;;;;;29.85;57.60;155171.11;1700557;84;20130;-70
2022/08/23 08:00:31;;;;;;;;;;;;;;;29.89;57.60;155181.61;1701156;84;20183;-68
2022/08/23 08:03:02;;;;;;;;;;;;;;;29.88;57.71;155178.98;1699875;82;20174;-69
2022/08/23 08:05:32;;;;;;;;;;;;;;;29.94;58.11;155193.44;1697590;83;22708;-69
2022/08/23 08:07:59;;;;;;;;;;;;;;;30.16;57.81;155249.95;1699819;84;20147;-69
2022/08/23 08:10:26;;;;;;;;;;;;;;;30.27;56.88;155278.88;1701516;82;20138;-69
2022/08/23 08:12:53;;;;;;;;;;;;;;;30.29;56.60;155284.13;1701668;82;20416;-69
2022/08/23 08:15:21;;;;;;;;;;;;;;;30.29;56.28;155284.13;1696828;83;20218;-69
2022/08/23 08:17:50;;;;;;;;;;;;;;;30.20;56.67;155260.50;1704126;82;21267;-69
2022/08/23 08:20:19;;;;;;;;;;;;;;;30.12;57.10;155239.45;1700557;83;20238;-69
2022/08/23 08:22:47;;;;;;;;;;;;;;;30.10;57.05;155234.20;1691999;83;20181;-68
2022/08/23 08:25:16;;;;;;;;;;;;;;;30.10;56.90;155234.20;1696443;83;20679;-68
2022/08/23 08:27:44;;;;;;;;;;;;;;;30.17;56.03;155252.58;1701956;84;20173;-68
2022/08/23 08:30:12;;;;;;;;;;;;;;;30.09;56.71;155231.58;1700022;84;21277;-70
2022/08/23 08:32:39;;;;;;;;;;;;;;;30.14;57.25;155244.70;1701628;84;20665;-69
2022/08/23 08:35:07;;;;;;;;;;;;;;;30.28;56.85;155281.50;1701562;83;20182;-61
2022/08/23 08:37:35;;;;;;;;;;;;;;;30.39;56.99;155307.75;1700184;84;20985;-69
2022/08/23 08:40:02;;;;;;;;;;;;;;;30.55;55.95;155349.81;1700813;84;20170;-69
2022/08/23 08:42:52;;;;;;;;;;;;;;;30.45;55.49;155323.56;1693082;84;21200;-68
2022/08/23 08:45:25;;;;;;;;;;;;;;;30.24;56.47;155269.67;1702129;83;20203;-70
2022/08/23 08:48:05;;;;;;;;;;;;;;;30.08;57.50;155228.95;1701801;84;20226;-69
2022/08/23 08:50:37;;;;;;;;;;;;;;;30.05;57.60;155221.08;1701417;83;20159;-69
2022/08/23 08:53:39;;;;;;;;;;;;;;;30.06;58.31;155223.70;1695300;84;20383;-68
2022/08/23 08:56:25;;;;;;;;;;;;;;;30.26;58.38;155276.25;1701067;84;21771;-69
2022/08/23 08:58:57;;;;;;;;;;;;;;;30.37;58.79;155302.50;1701339;83;20264;-71
2022/08/23 09:01:25;;;;;;;;;;;;;;;30.65;59.24;155373.55;1701546;84;20194;-70
2022/08/23 09:03:52;;;;;;;;;;;;;;;30.90;58.21;155436.63;1701511;84;20541;-69
2022/08/23 09:06:28;;;;;;;;;;;;;;;30.78;58.24;155407.69;1701356;83;20182;-68
2022/08/23 09:09:16;;;;;;;;;;;;;;;30.53;58.55;155344.56;1701947;84;21247;-70
2022/08/23 09:12:04;;;;;;;;;;;;;;;30.27;58.94;155278.88;1701608;84;20206;-68
2022/08/23 09:14:44;;;;;;;;;;;;;;;30.13;60.04;155242.08;1702522;82;20182;-69
2022/08/23 09:17:21;;;;;;;;;;;;;;;30.06;60.28;155225.00;1698391;83;20234;-69
2022/08/23 09:19:50;;;;;;;;;;;;;;;30.08;60.96;155230.30;1705695;82;20471;-69
2022/08/23 09:22:20;;;;;;;;;;;;;;;30.04;61.90;155218.45;1701367;84;21240;-70
2022/08/23 09:24:47;;;;;;;;;;;;;;;30.01;61.80;155213.20;1701757;84;20192;-69
2022/08/23 09:27:15;;;;;;;;;;;;;;;30.07;62.67;155226.33;1699590;84;20354;-70
2022/08/23 09:29:55;;;;;;;;;;;;;;;30.22;62.30;155265.75;1702274;84;20492;-69
2022/08/23 09:32:33;;;;;;;;;;;;;;;30.23;62.05;155267.05;1702075;84;20210;-69
2022/08/23 09:35:07;;;;;;;;;;;;;;;30.12;62.84;155239.45;1701837;84;21224;-69
2022/08/23 09:37:52;;;;;;;;;;;;;;;30.03;63.41;155215.83;1699700;84;20412;-67
2022/08/23 09:40:36;;;;;;;;;;;;;;;30.09;63.80;155231.58;1697763;84;20174;-68
2022/08/23 09:43:19;;;;;;;;;;;;;;;30.09;64.29;155231.58;1682097;82;20175;-70
2022/08/23 09:45:52;;;;;;;;;;;;;;;30.10;64.83;155234.20;1701811;84;20628;-69
2022/08/23 09:48:33;;;;;;;;;;;;;;;30.09;65.51;155231.58;1701964;83;21303;-69
2022/08/23 09:51:25;;;;;;;;;;;;;;;30.18;65.83;155255.25;1703295;82;20472;-70
2022/08/23 09:54:11;;;;;;;;;;;;;;;30.30;65.77;155285.47;1702609;84;20995;-68
2022/08/23 09:56:41;;;;;;;;;;;;;;;30.30;65.93;155286.75;1699353;84;20148;-69
2022/08/23 09:59:28;;;;;;;;;;;;;;;30.18;65.72;155253.92;1702524;84;20194;-68
2022/08/23 10:01:58;;;;;;;;;;;;;;;30.21;65.31;155261.78;1701370;84;21124;-69
2022/08/23 10:04:31;;;;;;;;;;;;;;;30.28;65.05;155281.50;1700126;84;20134;-68
2022/08/23 10:07:02;;;;;;;;;;;;;;;30.47;64.80;155328.81;1698193;83;20122;-68
2022/08/23 10:09:31;;;;;;;;;;;;;;;30.60;64.61;155361.66;1599127;87;20339;-70
2022/08/23 10:11:58;;;;;;;;;;;;;;;30.72;64.49;155391.94;1646150;85;20763;-69
2022/08/23 10:14:27;;;;;;;;;;;;;;;30.80;64.07;155412.94;1634442;87;21250;-69
2022/08/23 10:17:10;;;;;;;;;;;;;;;30.77;63.72;155405.06;1644704;86;20464;-68
2022/08/23 10:19:59;;;;;;;;;;;;;;;30.58;64.17;155357.69;1662191;84;20224;-69
2022/08/23 10:22:27;;;;;;;;;;;;;;;30.44;64.32;155320.94;1639133;85;20203;-69
2022/08/23 10:25:23;;;;;;;;;;;;;;;30.51;64.01;155339.31;1651398;85;20216;-69
2022/08/23 10:31:08;;;;;;;;;;;;;;;30.72;63.12;155391.94;1634545;86;20437;-69
2022/08/23 10:33:44;;;;;;;;;;;;;;;30.74;62.65;155397.19;1690104;84;20120;-68
2022/08/23 10:36:45;;;;;;;;;;;;;;;30.85;62.50;155424.78;1689659;85;20144;-69
2022/08/23 10:39:17;;;;;;;;;;;;;;;30.87;61.22;155431.38;1685017;84;20191;-70
2022/08/23 10:42:11;;;;;;;;;;;;;;;30.72;61.28;155391.94;1687491;84;23198;-67
2022/08/23 10:44:50;;;;;;;;;;;;;;;30.54;61.80;155347.19;1663317;85;20854;-68
2022/08/23 10:47:23;;;;;;;;;;;;;;;30.57;61.53;155355.06;1673291;84;20195;-69
2022/08/23 10:49:51;;;;;;;;;;;;;;;30.66;61.39;155376.17;1689579;84;20190;-68
2022/08/23 10:52:21;;;;;;;;;;;;;;;30.87;61.08;155431.38;1673737;84;20206;-68
2022/08/23 10:55:05;;;;;;;;;;;;;;;31.18;60.61;155507.58;1687415;85;21143;-68
2022/08/23 10:57:39;;;;;;;;;;;;;;;31.50;59.62;155589.09;1684827;84;20180;-68
2022/08/23 11:00:09;;;;;;;;;;;;;;;31.62;59.26;155620.67;1684338;84;20164;-69
2022/08/23 11:02:47;;;;;;;;;;;;;;;31.56;59.30;155604.91;1663351;84;20689;-68
2022/08/23 11:05:27;;;;;;;;;;;;;;;31.42;60.02;155569.42;1687369;84;20210;-69
2022/08/23 11:08:04;;;;;;;;;;;;;;;31.47;60.42;155581.22;1691399;84;22036;-69
2022/08/23 11:10:46;;;;;;;;;;;;;;;31.49;60.78;155586.47;1667159;85;20199;-69
2022/08/23 11:13:25;;;;;;;;;;;;;;;31.50;60.75;155589.09;1666389;84;20205;-69
2022/08/23 11:16:11;;;;;;;;;;;;;;;31.59;60.59;155614.09;1684565;82;20207;-68
2022/08/23 11:18:49;;;;;;;;;;;;;;;31.67;60.27;155632.53;1685866;82;20196;-60
2022/08/23 11:21:30;;;;;;;;;;;;;;;31.57;60.10;155607.53;1691493;83;21120;-60
2022/08/23 11:24:01;;;;;;;;;;;;;;;31.42;60.64;155570.72;1683494;84;20183;-60
2022/08/23 11:26:40;;;;;;;;;;;;;;;31.20;61.91;155512.88;1684300;84;20184;-59
2022/08/23 11:29:25;;;;;;;;;;;;;;;31.14;62.12;155499.69;1684060;84;20468;-60
2022/08/23 11:32:12;;;;;;;;;;;;;;;31.18;62.20;155507.58;1689763;84;20470;-61
2022/08/23 11:34:42;;;;;;;;;;;;;;;31.29;62.26;155537.86;1685776;84;21140;-60
2022/08/23 11:37:22;;;;;;;;;;;;;;;31.54;61.77;155599.66;1682350;84;20589;-60
2022/08/23 11:40:00;;;;;;;;;;;;;;;31.67;60.83;155633.81;1706256;82;20134;-60
2022/08/23 11:42:39;;;;;;;;;;;;;;;31.50;61.07;155590.44;1685261;84;20158;-63
2022/08/23 11:45:28;;;;;;;;;;;;;;;31.35;61.41;155552.33;1671523;82;20206;-60
2022/08/23 11:48:18;;;;;;;;;;;;;;;31.25;61.13;155526.00;1690896;82;21125;-59
2022/08/23 11:51:00;;;;;;;;;;;;;;;31.24;60.74;155523.39;1697282;84;20178;-60
2022/08/23 11:53:42;;;;;;;;;;;;;;;31.33;60.80;155547.08;1663687;82;20243;-60
2022/08/23 11:56:16;;;;;;;;;;;;;;;31.36;60.71;155554.95;1706591;84;20548;-61
2022/08/23 11:59:12;;;;;;;;;;;;;;;31.43;60.71;155572.06;1695997;84;20121;-61
2022/08/23 12:01:39;;;;;;;;;;;;;;;31.42;60.61;155570.72;1698861;84;21097;-61
2022/08/23 12:04:14;;;;;;;;;;;;;;;31.21;61.11;155515.50;1688054;84;20205;-60
2022/08/23 12:06:47;;;;;;;;;;;;;;;30.96;62.16;155452.38;1680682;82;20497;-60
2022/08/23 12:09:23;;;;;;;;;;;;;;;30.75;63.57;155399.81;1688828;84;20471;-60
2022/08/23 12:11:59;;;;;;;;;;;;;;;30.61;64.64;155362.94;1694823;82;20618;-60
2022/08/23 12:14:45;;;;;;;;;;;;;;;30.61;65.79;155364.33;1687800;84;21146;-59
2022/08/23 12:17:17;;;;;;;;;;;;;;;30.70;65.76;155386.67;1684392;84;20142;-60
2022/08/23 12:19:58;;;;;;;;;;;;;;;30.76;65.37;155401.14;1708880;82;20198;-62
2022/08/23 12:22:31;;;;;;;;;;;;;;;30.74;65.49;155397.19;1679342;84;20199;-61
2022/08/23 12:25:05;;;;;;;;;;;;;;;30.68;65.84;155382.72;1677159;84;20155;-61
2022/08/23 12:27:36;;;;;;;;;;;;;;;30.61;66.28;155362.94;1699017;83;21345;-59
2022/08/23 12:30:24;;;;;;;;;;;;;;;30.47;67.49;155328.81;1702432;83;20511;-60
2022/08/23 12:33:02;;;;;;;;;;;;;;;30.41;68.37;155314.34;1702976;83;20198;-61
2022/08/23 12:35:50;;;;;;;;;;;;;;;30.40;67.97;155310.44;1702622;84;20217;-61
2022/08/23 12:38:20;;;;;;;;;;;;;;;30.46;67.89;155326.19;1668293;85;20195;-60
2022/08/23 12:40:50;;;;;;;;;;;;;;;30.58;67.39;155357.69;1693309;84;21141;-60
2022/08/23 12:43:23;;;;;;;;;;;;;;;30.75;66.65;155399.81;1702374;84;20498;-61
2022/08/23 12:45:59;;;;;;;;;;;;;;;30.80;65.48;155412.94;1690149;82;20218;-61
2022/08/23 12:48:28;;;;;;;;;;;;;;;30.73;65.19;155394.56;1706719;82;20178;-62
2022/08/23 12:51:00;;;;;;;;;;;;;;;30.67;64.60;155378.80;1694610;84;20202;-61
2022/08/23 12:53:30;;;;;;;;;;;;;;;30.72;63.86;155391.94;1696110;84;21139;-60
2022/08/23 12:56:19;;;;;;;;;;;;;;;30.75;60.80;155399.81;1684540;83;20232;-60
2022/08/23 12:58:52;;;;;;;;;;;;;;;30.89;60.23;155434.00;1686368;83;20225;-61
2022/08/23 13:01:30;;;;;;;;;;;;;;;31.19;59.80;155510.20;1693019;84;20482;-61
2022/08/23 13:04:11;;;;;;;;;;;;;;;31.34;59.33;155549.70;1690163;84;20158;-60
2022/08/23 13:06:44;;;;;;;;;;;;;;;31.33;58.96;155547.08;1678773;84;21082;-60
2022/08/23 13:09:24;;;;;;;;;;;;;;;31.30;58.60;155539.19;1680425;84;20454;-61
2022/08/23 13:11:51;;;;;;;;;;;;;;;31.28;58.50;155533.89;1686628;84;20152;-61
2022/08/23 13:14:27;;;;;;;;;;;;;;;31.34;57.75;155549.70;1702259;83;20477;-61